sensor_id;sensor_type;location;lat;lon;timestamp;P1;durP1;ratioP1;P2;durP2;ratioP2
12433;SDS011;6281;49.038;8.372;2023-02-28T00:00:10;3.00;;;2.23;;
12433;SDS011;6281;49.038;8.372;2023-02-28T00:02:39;3.13;;;2.30;;
12433;SDS011;6281;49.038;8.372;2023-02-28T00:05:10;3.53;;;2.47;;
12433;SDS011;6281;49.038;8.372;2023-02-28T00:07:38;2.80;;;2.03;;
12433;SDS011;6281;49.038;8.372;2023-02-28T00:10:07;3.03;;;2.23;;
12433;SDS011;6281;49.038;8.372;2023-02-28T00:12:37;3.33;;;2.13;;
12433;SDS011;6281;49.038;8.372;2023-02-28T00:15:07;3.50;;;2.20;;
12433;SDS011;6281;49.038;8.372;2023-02-28T00:17:36;3.43;;;2.60;;
12433;SDS011;6281;49.038;8.372;2023-02-28T00:20:04;2.90;;;2.60;;
12433;SDS011;6281;49.038;8.372;2023-02-28T00:22:33;3.37;;;2.03;;
12433;SDS011;6281;49.038;8.372;2023-02-28T00:25:00;2.83;;;2.43;;
12433;SDS011;6281;49.038;8.372;2023-02-28T00:27:28;3.00;;;2.53;;
12433;SDS011;6281;49.038;8.372;2023-02-28T00:29:55;3.57;;;2.10;;
12433;SDS011;6281;49.038;8.372;2023-02-28T00:32:23;4.53;;;2.60;;
12433;SDS011;6281;49.038;8.372;2023-02-28T00:34:50;2.67;;;2.07;;
12433;SDS011;6281;49.038;8.372;2023-02-28T00:37:17;3.40;;;2.60;;
12433;SDS011;6281;49.038;8.372;2023-02-28T00:39:44;6.03;;;2.20;;
12433;SDS011;6281;49.038;8.372;2023-02-28T00:42:13;3.17;;;2.30;;
12433;SDS011;6281;49.038;8.372;2023-02-28T00:44:40;4.33;;;2.37;;
12433;SDS011;6281;49.038;8.372;2023-02-28T00:47:07;3.00;;;2.27;;
12433;SDS011;6281;49.038;8.372;2023-02-28T00:49:36;3.23;;;2.37;;
12433;SDS011;6281;49.038;8.372;2023-02-28T00:52:03;3.37;;;2.60;;
12433;SDS011;6281;49.038;8.372;2023-02-28T00:54:30;3.20;;;2.60;;
12433;SDS011;6281;49.038;8.372;2023-02-28T00:56:57;3.40;;;2.43;;
12433;SDS011;6281;49.038;8.372;2023-02-28T00:59:24;2.90;;;2.60;;
12433;SDS011;6281;49.038;8.372;2023-02-28T01:01:51;3.30;;;2.27;;
12433;SDS011;6281;49.038;8.372;2023-02-28T01:04:18;2.53;;;2.07;;
12433;SDS011;6281;49.038;8.372;2023-02-28T01:06:47;5.97;;;2.47;;
12433;SDS011;6281;49.038;8.372;2023-02-28T01:09:13;3.70;;;2.40;;
12433;SDS011;6281;49.038;8.372;2023-02-28T01:11:41;3.80;;;2.50;;
12433;SDS011;6281;49.038;8.372;2023-02-28T01:14:09;2.37;;;2.10;;
12433;SDS011;6281;49.038;8.372;2023-02-28T01:16:39;3.87;;;2.40;;
12433;SDS011;6281;49.038;8.372;2023-02-28T01:19:06;3.27;;;2.40;;
12433;SDS011;6281;49.038;8.372;2023-02-28T01:21:33;4.70;;;2.60;;
12433;SDS011;6281;49.038;8.372;2023-02-28T01:24:02;3.70;;;2.60;;
12433;SDS011;6281;49.038;8.372;2023-02-28T01:26:29;3.97;;;2.73;;
12433;SDS011;6281;49.038;8.372;2023-02-28T01:28:56;3.33;;;2.47;;
12433;SDS011;6281;49.038;8.372;2023-02-28T01:31:24;3.40;;;2.40;;
12433;SDS011;6281;49.038;8.372;2023-02-28T01:33:51;3.03;;;2.70;;
12433;SDS011;6281;49.038;8.372;2023-02-28T01:36:19;3.10;;;2.40;;
12433;SDS011;6281;49.038;8.372;2023-02-28T01:38:48;3.07;;;2.47;;
12433;SDS011;6281;49.038;8.372;2023-02-28T01:41:17;4.20;;;2.50;;
12433;SDS011;6281;49.038;8.372;2023-02-28T01:43:53;4.97;;;2.90;;
12433;SDS011;6281;49.038;8.372;2023-02-28T01:46:30;5.23;;;2.80;;
12433;SDS011;6281;49.038;8.372;2023-02-28T01:49:00;4.53;;;2.50;;
12433;SDS011;6281;49.038;8.372;2023-02-28T01:51:33;4.00;;;2.90;;
12433;SDS011;6281;49.038;8.372;2023-02-28T01:54:05;3.00;;;2.60;;
12433;SDS011;6281;49.038;8.372;2023-02-28T01:56:40;4.23;;;2.90;;
12433;SDS011;6281;49.038;8.372;2023-02-28T01:59:10;3.77;;;2.70;;
12433;SDS011;6281;49.038;8.372;2023-02-28T02:01:40;4.37;;;2.80;;
12433;SDS011;6281;49.038;8.372;2023-02-28T02:04:07;3.43;;;2.27;;
12433;SDS011;6281;49.038;8.372;2023-02-28T02:06:36;6.20;;;2.90;;
12433;SDS011;6281;49.038;8.372;2023-02-28T02:09:06;4.67;;;2.60;;
12433;SDS011;6281;49.038;8.372;2023-02-28T02:11:33;5.67;;;2.67;;
12433;SDS011;6281;49.038;8.372;2023-02-28T02:14:15;4.63;;;2.80;;
12433;SDS011;6281;49.038;8.372;2023-02-28T02:17:03;5.63;;;2.97;;
12433;SDS011;6281;49.038;8.372;2023-02-28T02:19:46;4.40;;;2.90;;
12433;SDS011;6281;49.038;8.372;2023-02-28T02:22:48;3.93;;;2.80;;
12433;SDS011;6281;49.038;8.372;2023-02-28T02:25:33;4.57;;;2.70;;
12433;SDS011;6281;49.038;8.372;2023-02-28T02:28:12;4.60;;;2.50;;
12433;SDS011;6281;49.038;8.372;2023-02-28T02:31:14;5.60;;;2.93;;
12433;SDS011;6281;49.038;8.372;2023-02-28T02:34:30;4.73;;;2.83;;
12433;SDS011;6281;49.038;8.372;2023-02-28T02:37:15;2.97;;;2.53;;
12433;SDS011;6281;49.038;8.372;2023-02-28T02:39:54;3.63;;;2.70;;
12433;SDS011;6281;49.038;8.372;2023-02-28T02:42:29;4.67;;;2.80;;
12433;SDS011;6281;49.038;8.372;2023-02-28T02:45:03;5.10;;;3.00;;
12433;SDS011;6281;49.038;8.372;2023-02-28T02:47:35;3.40;;;2.87;;
12433;SDS011;6281;49.038;8.372;2023-02-28T02:50:06;4.90;;;2.60;;
12433;SDS011;6281;49.038;8.372;2023-02-28T02:52:39;3.77;;;2.80;;
12433;SDS011;6281;49.038;8.372;2023-02-28T02:55:12;4.57;;;2.60;;
12433;SDS011;6281;49.038;8.372;2023-02-28T02:57:42;5.57;;;2.77;;
12433;SDS011;6281;49.038;8.372;2023-02-28T03:00:13;4.33;;;3.07;;
12433;SDS011;6281;49.038;8.372;2023-02-28T03:02:43;5.97;;;3.00;;
12433;SDS011;6281;49.038;8.372;2023-02-28T03:05:14;3.90;;;2.70;;
12433;SDS011;6281;49.038;8.372;2023-02-28T03:07:45;5.27;;;2.97;;
12433;SDS011;6281;49.038;8.372;2023-02-28T03:10:28;3.00;;;2.70;;
12433;SDS011;6281;49.038;8.372;2023-02-28T03:15:51;3.03;;;2.63;;
12433;SDS011;6281;49.038;8.372;2023-02-28T03:18:31;4.23;;;2.93;;
12433;SDS011;6281;49.038;8.372;2023-02-28T03:21:10;4.83;;;3.47;;
12433;SDS011;6281;49.038;8.372;2023-02-28T03:23:45;4.87;;;3.00;;
12433;SDS011;6281;49.038;8.372;2023-02-28T03:26:21;3.87;;;3.03;;
12433;SDS011;6281;49.038;8.372;2023-02-28T03:28:53;4.80;;;3.10;;
12433;SDS011;6281;49.038;8.372;2023-02-28T03:31:27;4.10;;;2.70;;
12433;SDS011;6281;49.038;8.372;2023-02-28T03:33:58;3.93;;;3.10;;
12433;SDS011;6281;49.038;8.372;2023-02-28T03:36:32;4.43;;;3.33;;
12433;SDS011;6281;49.038;8.372;2023-02-28T03:39:09;4.70;;;3.37;;
12433;SDS011;6281;49.038;8.372;2023-02-28T03:41:41;5.30;;;3.07;;
12433;SDS011;6281;49.038;8.372;2023-02-28T03:44:13;4.83;;;3.13;;
12433;SDS011;6281;49.038;8.372;2023-02-28T03:46:46;4.77;;;3.03;;
12433;SDS011;6281;49.038;8.372;2023-02-28T03:49:16;4.10;;;3.00;;
12433;SDS011;6281;49.038;8.372;2023-02-28T03:51:47;3.93;;;3.20;;
12433;SDS011;6281;49.038;8.372;2023-02-28T03:54:17;5.40;;;3.10;;
12433;SDS011;6281;49.038;8.372;2023-02-28T03:56:47;6.77;;;3.17;;
12433;SDS011;6281;49.038;8.372;2023-02-28T03:59:18;4.87;;;3.30;;
12433;SDS011;6281;49.038;8.372;2023-02-28T04:01:49;4.57;;;3.03;;
12433;SDS011;6281;49.038;8.372;2023-02-28T04:04:17;5.30;;;2.67;;
12433;SDS011;6281;49.038;8.372;2023-02-28T04:06:44;5.57;;;3.10;;
12433;SDS011;6281;49.038;8.372;2023-02-28T04:09:13;4.03;;;3.17;;
12433;SDS011;6281;49.038;8.372;2023-02-28T04:11:43;4.43;;;3.13;;
12433;SDS011;6281;49.038;8.372;2023-02-28T04:14:12;5.80;;;3.37;;
12433;SDS011;6281;49.038;8.372;2023-02-28T04:16:39;4.77;;;3.30;;
12433;SDS011;6281;49.038;8.372;2023-02-28T04:19:08;4.87;;;3.10;;
12433;SDS011;6281;49.038;8.372;2023-02-28T04:21:36;4.60;;;3.20;;
12433;SDS011;6281;49.038;8.372;2023-02-28T04:24:04;4.60;;;3.30;;
12433;SDS011;6281;49.038;8.372;2023-02-28T04:26:34;4.87;;;3.13;;
12433;SDS011;6281;49.038;8.372;2023-02-28T04:29:03;4.73;;;3.43;;
12433;SDS011;6281;49.038;8.372;2023-02-28T04:31:31;6.37;;;3.27;;
12433;SDS011;6281;49.038;8.372;2023-02-28T04:33:58;4.70;;;3.37;;
12433;SDS011;6281;49.038;8.372;2023-02-28T04:36:25;4.33;;;3.27;;
12433;SDS011;6281;49.038;8.372;2023-02-28T04:38:52;6.60;;;3.60;;
12433;SDS011;6281;49.038;8.372;2023-02-28T04:41:19;5.27;;;3.10;;
12433;SDS011;6281;49.038;8.372;2023-02-28T04:43:50;5.93;;;3.43;;
12433;SDS011;6281;49.038;8.372;2023-02-28T04:46:17;5.53;;;3.63;;
12433;SDS011;6281;49.038;8.372;2023-02-28T04:48:45;5.60;;;3.80;;
12433;SDS011;6281;49.038;8.372;2023-02-28T04:51:13;6.33;;;3.50;;
12433;SDS011;6281;49.038;8.372;2023-02-28T04:53:42;4.70;;;3.37;;
12433;SDS011;6281;49.038;8.372;2023-02-28T04:56:10;4.83;;;3.63;;
12433;SDS011;6281;49.038;8.372;2023-02-28T04:58:38;5.60;;;4.00;;
12433;SDS011;6281;49.038;8.372;2023-02-28T05:01:15;7.33;;;3.90;;
12433;SDS011;6281;49.038;8.372;2023-02-28T05:03:44;7.30;;;3.70;;
12433;SDS011;6281;49.038;8.372;2023-02-28T05:06:12;5.73;;;4.00;;
12433;SDS011;6281;49.038;8.372;2023-02-28T05:08:39;7.53;;;4.00;;
12433;SDS011;6281;49.038;8.372;2023-02-28T05:11:07;8.40;;;4.20;;
12433;SDS011;6281;49.038;8.372;2023-02-28T05:13:41;5.67;;;3.50;;
12433;SDS011;6281;49.038;8.372;2023-02-28T05:16:09;6.03;;;3.73;;
12433;SDS011;6281;49.038;8.372;2023-02-28T05:18:36;5.10;;;3.70;;
12433;SDS011;6281;49.038;8.372;2023-02-28T05:21:05;6.17;;;3.97;;
12433;SDS011;6281;49.038;8.372;2023-02-28T05:23:32;4.63;;;3.60;;
12433;SDS011;6281;49.038;8.372;2023-02-28T05:25:59;7.13;;;4.73;;
12433;SDS011;6281;49.038;8.372;2023-02-28T05:28:26;5.13;;;3.67;;
12433;SDS011;6281;49.038;8.372;2023-02-28T05:30:52;7.07;;;3.67;;
12433;SDS011;6281;49.038;8.372;2023-02-28T05:33:20;6.27;;;3.80;;
12433;SDS011;6281;49.038;8.372;2023-02-28T05:35:47;5.83;;;4.40;;
12433;SDS011;6281;49.038;8.372;2023-02-28T05:38:14;6.73;;;4.30;;
12433;SDS011;6281;49.038;8.372;2023-02-28T05:40:42;5.17;;;3.90;;
12433;SDS011;6281;49.038;8.372;2023-02-28T05:43:09;6.93;;;4.13;;
12433;SDS011;6281;49.038;8.372;2023-02-28T05:45:37;5.70;;;4.10;;
12433;SDS011;6281;49.038;8.372;2023-02-28T05:48:04;5.20;;;3.60;;
12433;SDS011;6281;49.038;8.372;2023-02-28T05:50:33;6.23;;;4.47;;
12433;SDS011;6281;49.038;8.372;2023-02-28T05:53:00;5.97;;;4.47;;
12433;SDS011;6281;49.038;8.372;2023-02-28T05:55:26;6.17;;;4.47;;
12433;SDS011;6281;49.038;8.372;2023-02-28T05:57:53;6.43;;;3.90;;
12433;SDS011;6281;49.038;8.372;2023-02-28T06:00:21;5.57;;;4.23;;
12433;SDS011;6281;49.038;8.372;2023-02-28T06:02:51;7.37;;;4.70;;
12433;SDS011;6281;49.038;8.372;2023-02-28T06:05:21;7.10;;;4.40;;
12433;SDS011;6281;49.038;8.372;2023-02-28T06:07:50;8.27;;;4.30;;
12433;SDS011;6281;49.038;8.372;2023-02-28T06:10:17;7.67;;;4.40;;
12433;SDS011;6281;49.038;8.372;2023-02-28T06:12:44;7.80;;;4.00;;
12433;SDS011;6281;49.038;8.372;2023-02-28T06:15:11;6.67;;;4.17;;
12433;SDS011;6281;49.038;8.372;2023-02-28T06:17:42;6.60;;;3.93;;
12433;SDS011;6281;49.038;8.372;2023-02-28T06:20:10;7.37;;;4.73;;
12433;SDS011;6281;49.038;8.372;2023-02-28T06:22:39;6.37;;;4.87;;
12433;SDS011;6281;49.038;8.372;2023-02-28T06:25:10;5.87;;;4.20;;
12433;SDS011;6281;49.038;8.372;2023-02-28T06:27:37;6.90;;;4.33;;
12433;SDS011;6281;49.038;8.372;2023-02-28T06:30:04;5.27;;;4.10;;
12433;SDS011;6281;49.038;8.372;2023-02-28T06:32:31;6.43;;;4.07;;
12433;SDS011;6281;49.038;8.372;2023-02-28T06:34:58;7.03;;;4.73;;
12433;SDS011;6281;49.038;8.372;2023-02-28T06:37:25;8.97;;;4.60;;
12433;SDS011;6281;49.038;8.372;2023-02-28T06:39:53;6.90;;;4.37;;
12433;SDS011;6281;49.038;8.372;2023-02-28T06:42:23;7.20;;;4.27;;
12433;SDS011;6281;49.038;8.372;2023-02-28T06:44:53;5.83;;;4.40;;
12433;SDS011;6281;49.038;8.372;2023-02-28T06:47:21;7.83;;;4.60;;
12433;SDS011;6281;49.038;8.372;2023-02-28T06:49:48;7.20;;;4.77;;
12433;SDS011;6281;49.038;8.372;2023-02-28T06:52:16;7.00;;;4.53;;
12433;SDS011;6281;49.038;8.372;2023-02-28T06:54:43;5.53;;;3.97;;
12433;SDS011;6281;49.038;8.372;2023-02-28T06:57:10;8.03;;;4.20;;
12433;SDS011;6281;49.038;8.372;2023-02-28T06:59:41;7.50;;;4.10;;
12433;SDS011;6281;49.038;8.372;2023-02-28T07:02:08;6.00;;;4.20;;
12433;SDS011;6281;49.038;8.372;2023-02-28T07:04:35;6.03;;;4.43;;
12433;SDS011;6281;49.038;8.372;2023-02-28T07:07:01;5.67;;;4.07;;
12433;SDS011;6281;49.038;8.372;2023-02-28T07:09:28;5.90;;;4.20;;
12433;SDS011;6281;49.038;8.372;2023-02-28T07:11:55;8.00;;;4.83;;
12433;SDS011;6281;49.038;8.372;2023-02-28T07:14:22;6.30;;;3.70;;
12433;SDS011;6281;49.038;8.372;2023-02-28T07:16:53;6.47;;;4.20;;
12433;SDS011;6281;49.038;8.372;2023-02-28T07:19:20;6.60;;;4.80;;
12433;SDS011;6281;49.038;8.372;2023-02-28T07:21:47;7.70;;;4.53;;
12433;SDS011;6281;49.038;8.372;2023-02-28T07:24:14;6.83;;;4.60;;
12433;SDS011;6281;49.038;8.372;2023-02-28T07:26:42;10.13;;;4.80;;
12433;SDS011;6281;49.038;8.372;2023-02-28T07:29:09;7.53;;;4.37;;
12433;SDS011;6281;49.038;8.372;2023-02-28T07:31:36;7.73;;;5.07;;
12433;SDS011;6281;49.038;8.372;2023-02-28T07:34:05;5.47;;;3.97;;
12433;SDS011;6281;49.038;8.372;2023-02-28T07:36:32;7.90;;;4.33;;
12433;SDS011;6281;49.038;8.372;2023-02-28T07:38:59;8.07;;;4.17;;
12433;SDS011;6281;49.038;8.372;2023-02-28T07:41:25;5.70;;;4.57;;
12433;SDS011;6281;49.038;8.372;2023-02-28T07:43:54;6.47;;;4.10;;
12433;SDS011;6281;49.038;8.372;2023-02-28T07:46:22;6.17;;;4.67;;
12433;SDS011;6281;49.038;8.372;2023-02-28T07:48:49;7.63;;;4.77;;
12433;SDS011;6281;49.038;8.372;2023-02-28T07:51:17;8.17;;;4.97;;
12433;SDS011;6281;49.038;8.372;2023-02-28T07:53:45;7.17;;;4.23;;
12433;SDS011;6281;49.038;8.372;2023-02-28T07:56:12;7.33;;;4.77;;
12433;SDS011;6281;49.038;8.372;2023-02-28T07:58:39;7.90;;;5.10;;
12433;SDS011;6281;49.038;8.372;2023-02-28T08:01:06;6.97;;;4.47;;
12433;SDS011;6281;49.038;8.372;2023-02-28T08:03:34;7.13;;;4.07;;
12433;SDS011;6281;49.038;8.372;2023-02-28T08:06:02;6.60;;;4.57;;
12433;SDS011;6281;49.038;8.372;2023-02-28T08:08:30;7.27;;;4.13;;
12433;SDS011;6281;49.038;8.372;2023-02-28T08:10:58;5.83;;;4.10;;
12433;SDS011;6281;49.038;8.372;2023-02-28T08:13:26;8.20;;;4.60;;
12433;SDS011;6281;49.038;8.372;2023-02-28T08:15:54;9.40;;;4.93;;
12433;SDS011;6281;49.038;8.372;2023-02-28T08:18:21;8.57;;;5.37;;
12433;SDS011;6281;49.038;8.372;2023-02-28T08:20:51;6.97;;;4.57;;
12433;SDS011;6281;49.038;8.372;2023-02-28T08:23:21;5.97;;;4.20;;
12433;SDS011;6281;49.038;8.372;2023-02-28T08:25:54;8.53;;;5.20;;
12433;SDS011;6281;49.038;8.372;2023-02-28T08:28:20;10.83;;;6.80;;
12433;SDS011;6281;49.038;8.372;2023-02-28T08:30:49;12.27;;;7.73;;
12433;SDS011;6281;49.038;8.372;2023-02-28T08:33:16;7.10;;;5.23;;
12433;SDS011;6281;49.038;8.372;2023-02-28T08:35:43;7.40;;;5.00;;
12433;SDS011;6281;49.038;8.372;2023-02-28T08:38:10;9.77;;;4.90;;
12433;SDS011;6281;49.038;8.372;2023-02-28T08:40:36;7.50;;;5.47;;
12433;SDS011;6281;49.038;8.372;2023-02-28T08:43:04;6.87;;;4.43;;
12433;SDS011;6281;49.038;8.372;2023-02-28T08:45:31;7.93;;;4.87;;
12433;SDS011;6281;49.038;8.372;2023-02-28T08:47:58;8.13;;;4.90;;
12433;SDS011;6281;49.038;8.372;2023-02-28T08:50:25;6.90;;;4.63;;
12433;SDS011;6281;49.038;8.372;2023-02-28T08:52:52;7.20;;;4.60;;
12433;SDS011;6281;49.038;8.372;2023-02-28T08:58:11;8.40;;;5.57;;
12433;SDS011;6281;49.038;8.372;2023-02-28T09:00:38;8.30;;;5.23;;
12433;SDS011;6281;49.038;8.372;2023-02-28T09:03:05;7.87;;;5.33;;
12433;SDS011;6281;49.038;8.372;2023-02-28T09:08:28;10.87;;;5.67;;
12433;SDS011;6281;49.038;8.372;2023-02-28T09:10:56;7.83;;;5.87;;
12433;SDS011;6281;49.038;8.372;2023-02-28T09:13:25;8.37;;;5.37;;
12433;SDS011;6281;49.038;8.372;2023-02-28T09:15:53;8.63;;;5.37;;
12433;SDS011;6281;49.038;8.372;2023-02-28T09:18:20;6.73;;;5.23;;
12433;SDS011;6281;49.038;8.372;2023-02-28T09:20:47;8.37;;;5.40;;
12433;SDS011;6281;49.038;8.372;2023-02-28T09:23:31;7.50;;;5.73;;
12433;SDS011;6281;49.038;8.372;2023-02-28T09:25:57;8.13;;;5.93;;
12433;SDS011;6281;49.038;8.372;2023-02-28T09:28:26;9.37;;;5.60;;
12433;SDS011;6281;49.038;8.372;2023-02-28T09:30:53;5.63;;;3.97;;
12433;SDS011;6281;49.038;8.372;2023-02-28T09:33:22;8.87;;;4.97;;
12433;SDS011;6281;49.038;8.372;2023-02-28T09:35:49;9.20;;;6.03;;
12433;SDS011;6281;49.038;8.372;2023-02-28T09:38:17;10.50;;;6.37;;
12433;SDS011;6281;49.038;8.372;2023-02-28T09:40:47;7.77;;;5.67;;
12433;SDS011;6281;49.038;8.372;2023-02-28T09:43:17;8.13;;;4.60;;
12433;SDS011;6281;49.038;8.372;2023-02-28T09:45:47;9.17;;;5.47;;
12433;SDS011;6281;49.038;8.372;2023-02-28T09:48:24;7.50;;;5.00;;
12433;SDS011;6281;49.038;8.372;2023-02-28T09:50:55;8.13;;;4.70;;
12433;SDS011;6281;49.038;8.372;2023-02-28T09:53:27;8.33;;;4.57;;
12433;SDS011;6281;49.038;8.372;2023-02-28T09:55:59;7.73;;;5.63;;
12433;SDS011;6281;49.038;8.372;2023-02-28T09:58:31;6.20;;;4.57;;
12433;SDS011;6281;49.038;8.372;2023-02-28T10:01:05;10.90;;;6.03;;
12433;SDS011;6281;49.038;8.372;2023-02-28T10:03:36;9.70;;;6.43;;
12433;SDS011;6281;49.038;8.372;2023-02-28T10:06:07;6.43;;;4.27;;
12433;SDS011;6281;49.038;8.372;2023-02-28T10:08:39;8.40;;;6.13;;
12433;SDS011;6281;49.038;8.372;2023-02-28T10:11:11;8.63;;;5.20;;
12433;SDS011;6281;49.038;8.372;2023-02-28T10:13:45;10.10;;;6.20;;
12433;SDS011;6281;49.038;8.372;2023-02-28T10:16:20;9.47;;;6.47;;
12433;SDS011;6281;49.038;8.372;2023-02-28T10:18:52;8.03;;;5.83;;
12433;SDS011;6281;49.038;8.372;2023-02-28T10:21:24;8.03;;;5.70;;
12433;SDS011;6281;49.038;8.372;2023-02-28T10:23:56;10.63;;;6.53;;
12433;SDS011;6281;49.038;8.372;2023-02-28T10:26:29;9.17;;;5.47;;
12433;SDS011;6281;49.038;8.372;2023-02-28T10:28:58;11.20;;;6.57;;
12433;SDS011;6281;49.038;8.372;2023-02-28T10:31:26;11.87;;;7.03;;
12433;SDS011;6281;49.038;8.372;2023-02-28T10:33:53;9.20;;;6.37;;
12433;SDS011;6281;49.038;8.372;2023-02-28T10:36:21;12.57;;;8.57;;
12433;SDS011;6281;49.038;8.372;2023-02-28T10:38:48;10.93;;;6.83;;
12433;SDS011;6281;49.038;8.372;2023-02-28T10:41:16;9.93;;;7.00;;
12433;SDS011;6281;49.038;8.372;2023-02-28T10:43:52;8.23;;;5.73;;
12433;SDS011;6281;49.038;8.372;2023-02-28T10:46:21;9.43;;;6.43;;
12433;SDS011;6281;49.038;8.372;2023-02-28T10:48:59;11.07;;;6.50;;
12433;SDS011;6281;49.038;8.372;2023-02-28T10:51:33;10.33;;;6.27;;
12433;SDS011;6281;49.038;8.372;2023-02-28T10:54:02;9.33;;;6.83;;
12433;SDS011;6281;49.038;8.372;2023-02-28T10:56:29;8.30;;;6.57;;
12433;SDS011;6281;49.038;8.372;2023-02-28T10:58:58;8.27;;;6.03;;
12433;SDS011;6281;49.038;8.372;2023-02-28T11:01:34;10.13;;;7.03;;
12433;SDS011;6281;49.038;8.372;2023-02-28T11:04:11;7.83;;;5.97;;
12433;SDS011;6281;49.038;8.372;2023-02-28T11:06:43;8.90;;;6.63;;
12433;SDS011;6281;49.038;8.372;2023-02-28T11:09:15;8.67;;;6.27;;
12433;SDS011;6281;49.038;8.372;2023-02-28T11:11:49;9.80;;;7.47;;
12433;SDS011;6281;49.038;8.372;2023-02-28T11:14:18;6.93;;;5.07;;
12433;SDS011;6281;49.038;8.372;2023-02-28T11:16:47;10.00;;;5.87;;
12433;SDS011;6281;49.038;8.372;2023-02-28T11:19:20;6.60;;;5.40;;
12433;SDS011;6281;49.038;8.372;2023-02-28T11:21:54;9.73;;;6.53;;
12433;SDS011;6281;49.038;8.372;2023-02-28T11:24:24;9.23;;;6.30;;
12433;SDS011;6281;49.038;8.372;2023-02-28T11:26:54;10.30;;;6.60;;
12433;SDS011;6281;49.038;8.372;2023-02-28T11:29:22;9.97;;;6.40;;
12433;SDS011;6281;49.038;8.372;2023-02-28T11:32:03;9.40;;;6.93;;
12433;SDS011;6281;49.038;8.372;2023-02-28T11:34:40;10.23;;;6.87;;
12433;SDS011;6281;49.038;8.372;2023-02-28T11:37:10;8.43;;;6.30;;
12433;SDS011;6281;49.038;8.372;2023-02-28T11:39:39;9.73;;;7.10;;
12433;SDS011;6281;49.038;8.372;2023-02-28T11:42:17;7.87;;;6.20;;
12433;SDS011;6281;49.038;8.372;2023-02-28T11:45:01;11.80;;;6.63;;
12433;SDS011;6281;49.038;8.372;2023-02-28T11:47:38;10.63;;;6.47;;
12433;SDS011;6281;49.038;8.372;2023-02-28T11:50:16;9.47;;;6.93;;
12433;SDS011;6281;49.038;8.372;2023-02-28T11:53:05;9.50;;;6.10;;
12433;SDS011;6281;49.038;8.372;2023-02-28T11:55:42;9.23;;;7.03;;
12433;SDS011;6281;49.038;8.372;2023-02-28T11:58:33;9.50;;;7.10;;
12433;SDS011;6281;49.038;8.372;2023-02-28T12:01:13;7.80;;;6.37;;
12433;SDS011;6281;49.038;8.372;2023-02-28T12:03:50;8.30;;;6.63;;
12433;SDS011;6281;49.038;8.372;2023-02-28T12:06:28;9.23;;;6.50;;
12433;SDS011;6281;49.038;8.372;2023-02-28T12:09:02;10.37;;;8.03;;
12433;SDS011;6281;49.038;8.372;2023-02-28T12:11:39;8.70;;;6.80;;
12433;SDS011;6281;49.038;8.372;2023-02-28T12:17:28;10.40;;;7.17;;
12433;SDS011;6281;49.038;8.372;2023-02-28T12:20:05;9.60;;;6.13;;
12433;SDS011;6281;49.038;8.372;2023-02-28T12:22:42;9.47;;;6.50;;
12433;SDS011;6281;49.038;8.372;2023-02-28T12:25:21;10.07;;;6.90;;
12433;SDS011;6281;49.038;8.372;2023-02-28T12:27:54;9.40;;;6.57;;
12433;SDS011;6281;49.038;8.372;2023-02-28T12:30:21;8.00;;;6.53;;
12433;SDS011;6281;49.038;8.372;2023-02-28T12:32:51;8.93;;;6.70;;
12433;SDS011;6281;49.038;8.372;2023-02-28T12:35:22;9.70;;;7.43;;
12433;SDS011;6281;49.038;8.372;2023-02-28T12:37:53;7.37;;;5.37;;
12433;SDS011;6281;49.038;8.372;2023-02-28T12:40:23;9.53;;;6.70;;
12433;SDS011;6281;49.038;8.372;2023-02-28T12:42:54;15.47;;;6.87;;
12433;SDS011;6281;49.038;8.372;2023-02-28T12:45:24;10.10;;;7.00;;
12433;SDS011;6281;49.038;8.372;2023-02-28T12:48:01;11.93;;;7.00;;
12433;SDS011;6281;49.038;8.372;2023-02-28T12:50:31;9.23;;;6.60;;
12433;SDS011;6281;49.038;8.372;2023-02-28T12:53:01;9.07;;;6.40;;
12433;SDS011;6281;49.038;8.372;2023-02-28T12:55:33;9.47;;;7.00;;
12433;SDS011;6281;49.038;8.372;2023-02-28T12:58:11;9.07;;;6.33;;
12433;SDS011;6281;49.038;8.372;2023-02-28T13:00:48;9.77;;;7.77;;
12433;SDS011;6281;49.038;8.372;2023-02-28T13:03:43;10.00;;;6.73;;
12433;SDS011;6281;49.038;8.372;2023-02-28T13:06:41;9.27;;;6.30;;
12433;SDS011;6281;49.038;8.372;2023-02-28T13:09:15;9.97;;;6.53;;
12433;SDS011;6281;49.038;8.372;2023-02-28T13:11:44;9.07;;;6.47;;
12433;SDS011;6281;49.038;8.372;2023-02-28T13:14:19;9.47;;;7.30;;
12433;SDS011;6281;49.038;8.372;2023-02-28T13:17:02;9.40;;;6.97;;
12433;SDS011;6281;49.038;8.372;2023-02-28T13:19:36;9.57;;;7.43;;
12433;SDS011;6281;49.038;8.372;2023-02-28T13:22:05;10.60;;;7.07;;
12433;SDS011;6281;49.038;8.372;2023-02-28T13:24:44;10.30;;;7.30;;
12433;SDS011;6281;49.038;8.372;2023-02-28T13:31:03;9.77;;;8.03;;
12433;SDS011;6281;49.038;8.372;2023-02-28T13:36:19;7.93;;;6.70;;
12433;SDS011;6281;49.038;8.372;2023-02-28T13:38:51;12.20;;;7.40;;
12433;SDS011;6281;49.038;8.372;2023-02-28T13:41:41;10.20;;;7.07;;
12433;SDS011;6281;49.038;8.372;2023-02-28T13:44:16;10.33;;;7.70;;
12433;SDS011;6281;49.038;8.372;2023-02-28T13:49:50;10.07;;;7.70;;
12433;SDS011;6281;49.038;8.372;2023-02-28T13:52:18;9.53;;;7.20;;
12433;SDS011;6281;49.038;8.372;2023-02-28T13:55:06;9.47;;;7.20;;
12433;SDS011;6281;49.038;8.372;2023-02-28T13:57:55;8.90;;;6.40;;
12433;SDS011;6281;49.038;8.372;2023-02-28T14:00:35;9.33;;;7.37;;
12433;SDS011;6281;49.038;8.372;2023-02-28T14:03:28;10.47;;;7.27;;
12433;SDS011;6281;49.038;8.372;2023-02-28T14:06:08;9.23;;;7.50;;
12433;SDS011;6281;49.038;8.372;2023-02-28T14:08:53;11.50;;;7.20;;
12433;SDS011;6281;49.038;8.372;2023-02-28T14:11:27;10.93;;;8.13;;
12433;SDS011;6281;49.038;8.372;2023-02-28T14:13:57;9.90;;;7.83;;
12433;SDS011;6281;49.038;8.372;2023-02-28T14:16:26;10.13;;;9.00;;
12433;SDS011;6281;49.038;8.372;2023-02-28T14:19:01;14.13;;;11.00;;
12433;SDS011;6281;49.038;8.372;2023-02-28T14:21:35;15.93;;;13.03;;
12433;SDS011;6281;49.038;8.372;2023-02-28T14:24:28;11.30;;;8.30;;
12433;SDS011;6281;49.038;8.372;2023-02-28T14:27:21;10.50;;;9.17;;
12433;SDS011;6281;49.038;8.372;2023-02-28T14:30:07;10.90;;;8.30;;
12433;SDS011;6281;49.038;8.372;2023-02-28T14:33:04;9.43;;;8.03;;
12433;SDS011;6281;49.038;8.372;2023-02-28T14:35:47;10.30;;;6.87;;
12433;SDS011;6281;49.038;8.372;2023-02-28T14:38:23;9.83;;;7.47;;
12433;SDS011;6281;49.038;8.372;2023-02-28T14:40:55;10.90;;;7.77;;
12433;SDS011;6281;49.038;8.372;2023-02-28T14:43:25;9.57;;;7.73;;
12433;SDS011;6281;49.038;8.372;2023-02-28T14:45:55;10.30;;;8.07;;
12433;SDS011;6281;49.038;8.372;2023-02-28T14:48:24;9.77;;;8.17;;
12433;SDS011;6281;49.038;8.372;2023-02-28T14:50:52;10.43;;;7.83;;
12433;SDS011;6281;49.038;8.372;2023-02-28T14:53:22;10.03;;;7.87;;
12433;SDS011;6281;49.038;8.372;2023-02-28T14:55:51;11.43;;;7.43;;
12433;SDS011;6281;49.038;8.372;2023-02-28T14:58:23;11.10;;;7.63;;
12433;SDS011;6281;49.038;8.372;2023-02-28T15:00:52;10.70;;;7.83;;
12433;SDS011;6281;49.038;8.372;2023-02-28T15:03:23;10.40;;;7.73;;
12433;SDS011;6281;49.038;8.372;2023-02-28T15:05:56;10.17;;;8.10;;
12433;SDS011;6281;49.038;8.372;2023-02-28T15:10:53;9.43;;;7.13;;
12433;SDS011;6281;49.038;8.372;2023-02-28T15:13:22;10.70;;;8.80;;
12433;SDS011;6281;49.038;8.372;2023-02-28T15:15:53;10.97;;;8.40;;
12433;SDS011;6281;49.038;8.372;2023-02-28T15:18:26;11.60;;;8.87;;
12433;SDS011;6281;49.038;8.372;2023-02-28T15:20:58;11.27;;;8.77;;
12433;SDS011;6281;49.038;8.372;2023-02-28T15:23:30;10.37;;;8.80;;
12433;SDS011;6281;49.038;8.372;2023-02-28T15:25:58;10.60;;;7.93;;
12433;SDS011;6281;49.038;8.372;2023-02-28T15:28:26;13.07;;;8.90;;
12433;SDS011;6281;49.038;8.372;2023-02-28T15:30:55;11.07;;;8.20;;
12433;SDS011;6281;49.038;8.372;2023-02-28T15:33:34;11.67;;;8.10;;
12433;SDS011;6281;49.038;8.372;2023-02-28T15:36:05;10.30;;;7.30;;
12433;SDS011;6281;49.038;8.372;2023-02-28T15:38:36;10.63;;;7.60;;
12433;SDS011;6281;49.038;8.372;2023-02-28T15:41:03;9.87;;;8.10;;
12433;SDS011;6281;49.038;8.372;2023-02-28T15:43:36;10.10;;;8.10;;
12433;SDS011;6281;49.038;8.372;2023-02-28T15:46:06;8.87;;;7.43;;